This is the latest recevied weather packets stored in our database for station/object W4CKA. If no packets are shown the sender has not sent any weather packets the latest 10 day(s).
| Time | Temp. | Humidity | Pressure | Rain* | Wind** | Luminosity | Snow |
|---|---|---|---|---|---|---|---|
| 1788053945 | 22.78° C | 94% | 1063 hPa | 0 mm | - | 0 W/m² | - |
| 1788053341 | 22.78° C | 94% | 1062.6 hPa | 0 mm | - | 0 W/m² | - |
| 1788052739 | 23.33° C | 93% | 1062.4 hPa | 0 mm | - | 0 W/m² | - |
| 1788052134 | 23.33° C | 93% | 1062.2 hPa | 0 mm | - | 0 W/m² | - |
| 1788051529 | 23.89° C | 91% | 1062.1 hPa | 0 mm | - | 0 W/m² | - |
| 1788050927 | 24.44° C | 89% | 1062 hPa | 0 mm | - | 0 W/m² | - |
| 1788050322 | 24.44° C | 89% | 1061.9 hPa | 0 mm | - | 0 W/m² | - |
| 1788049719 | 24.44° C | 89% | 1062 hPa | 0 mm | - | 0 W/m² | - |
| 1788049116 | 25° C | 88% | 1061.9 hPa | 0 mm | - | 0 W/m² | - |
| 1788048511 | 25° C | 86% | 1061.7 hPa | 0 mm | - | 0 W/m² | - |
| 1788047906 | 25° C | 85% | 1061.6 hPa | 0 mm | - | 1 W/m² | - |
| 1788047301 | 25.56° C | 87% | 1061.8 hPa | 0 mm | - | 9 W/m² | - |
| 1788046701 | 26.11° C | 83% | 1061.6 hPa | 0 mm | - | 18 W/m² | - |
| 1788046100 | 26.67° C | 81% | 1061.6 hPa | 0 mm | - | 21 W/m² | - |
| 1788045496 | 26.67° C | 76% | 1061.6 hPa | 0 mm | - | 27 W/m² | - |
| 1788044893 | 26.67° C | 77% | 1061.5 hPa | 0 mm | - | 32 W/m² | - |
| 1788044291 | 27.22° C | 75% | 1061.5 hPa | 0 mm | - | 32 W/m² | - |
| 1788043688 | 27.78° C | 74% | 1061.4 hPa | 0 mm | - | 73 W/m² | - |
| 1788043088 | 28.89° C | 70% | 1061.4 hPa | 0 mm | - | 49 W/m² | - |
| 1788042489 | 31.11° C | 64% | 1061.4 hPa | 0 mm | - | 133 W/m² | - |
| 1788041886 | 31.67° C | 64% | 1061.4 hPa | 0 mm | - | 168 W/m² | - |
| 1788041287 | 31.67° C | 64% | 1061.2 hPa | 0 mm | - | 174 W/m² | - |
| 1788040685 | 31.67° C | 63% | 1061.3 hPa | 0 mm | - | 197 W/m² | - |
| 1788040080 | 31.67° C | 63% | 1061.4 hPa | 0 mm | - | 265 W/m² | - |
| 1788039476 | 31.67° C | 59% | 1061.4 hPa | 0 mm | - | 278 W/m² | - |
* Rain latest hour (hover to see other rain measurements)
** Current wind speed in m/s (hover to see current wind gust speed)